Time;durP1;ratioP1;P1;durP2;ratioP2;P2;SDS_P1;SDS_P2;PMS_P1;PMS_P2;Temp;Humidity;BMP_temperature;BMP_pressure;BME280_temperature;BME280_humidity;BME280_pressure;Samples;Min_cycle;Max_cycle;Signal;HPM_P1;HPM_P2
2022/07/22 00:01:29;;;;;;;18.70;10.40;;;;;;;15.05;100.00;101113.19;5071691;28;20024;-75
2022/07/22 00:03:54;;;;;;;13.48;9.60;;;;;;;15.03;100.00;101115.06;5082842;28;20036;-75
2022/07/22 00:06:20;;;;;;;12.32;9.27;;;;;;;14.87;100.00;101087.75;5072549;28;20394;-74
2022/07/22 00:08:45;;;;;;;19.33;9.88;;;;;;;15.05;100.00;101118.47;5070817;28;20115;-73
2022/07/22 00:11:11;;;;;;;16.35;10.27;;;;;;;15.00;100.00;101109.97;5085121;28;20046;-74
2022/07/22 00:13:36;;;;;;;19.30;8.52;;;;;;;15.15;100.00;101135.53;5086589;28;20032;-74
2022/07/22 00:16:02;;;;;;;12.10;8.10;;;;;;;15.13;100.00;101126.84;5058982;28;20037;-73
2022/07/22 00:18:28;;;;;;;13.32;7.40;;;;;;;15.01;100.00;101116.94;5066792;28;20133;-74
2022/07/22 00:20:53;;;;;;;12.45;8.50;;;;;;;15.11;100.00;101134.00;5077650;28;20032;-74
2022/07/22 00:23:19;;;;;;;10.65;7.68;;;;;;;15.08;100.00;101123.59;5053356;28;20071;-75
2022/07/22 00:25:44;;;;;;;18.42;7.18;;;;;;;15.05;100.00;101113.19;5081657;28;20035;-74
2022/07/22 00:28:09;;;;;;;15.30;8.40;;;;;;;14.95;100.00;101090.81;5076263;28;20119;-76
2022/07/22 00:30:35;;;;;;;14.82;6.95;;;;;;;15.02;100.00;101109.84;5072002;28;20020;-75
2022/07/22 00:33:01;;;;;;;18.65;7.03;;;;;;;14.84;100.00;101080.00;5051255;28;20498;-75
2022/07/22 00:35:26;;;;;;;17.05;6.85;;;;;;;15.14;100.00;101117.13;5066995;28;20033;-76
2022/07/22 00:37:52;;;;;;;13.95;6.90;;;;;;;15.12;100.00;101109.25;5069640;28;20051;-76
2022/07/22 00:40:17;;;;;;;19.55;5.93;;;;;;;15.09;100.00;101103.28;5076448;28;20036;-76
2022/07/22 00:42:42;;;;;;;16.20;7.20;;;;;;;15.10;100.00;101119.09;5076412;28;20963;-75
2022/07/22 00:45:08;;;;;;;9.30;5.32;;;;;;;15.15;100.00;101111.72;5070855;28;20067;-75
2022/07/22 00:47:34;;;;;;;17.23;7.30;;;;;;;15.12;100.00;101108.38;5064337;28;20480;-73
2022/07/22 00:49:59;;;;;;;13.02;6.25;;;;;;;15.06;100.00;101098.16;5077737;28;20487;-72
2022/07/22 00:52:25;;;;;;;8.88;6.00;;;;;;;15.09;100.00;101109.41;5080823;28;20020;-72
2022/07/22 00:54:51;;;;;;;8.98;6.75;;;;;;;15.11;100.00;101122.56;5096564;28;20024;-73
2022/07/22 00:57:16;;;;;;;8.48;5.70;;;;;;;15.05;100.00;101113.19;5063744;28;20052;-72
2022/07/22 00:59:42;;;;;;;11.52;6.00;;;;;;;15.04;100.00;101110.63;5070449;28;20028;-75
2022/07/22 01:02:07;;;;;;;11.52;6.82;;;;;;;14.92;100.00;101092.78;5077302;28;20032;-74
2022/07/22 01:04:33;;;;;;;18.45;6.53;;;;;;;14.94;100.00;101099.69;5068559;28;20025;-74
2022/07/22 01:06:58;;;;;;;12.02;5.85;;;;;;;14.91;100.00;101078.69;5075193;28;20127;-75
2022/07/22 01:09:24;;;;;;;13.18;5.78;;;;;;;14.94;100.00;101094.41;5078828;28;20066;-74
2022/07/22 01:11:49;;;;;;;10.85;5.20;;;;;;;15.02;100.00;101105.41;5083325;28;20376;-73
2022/07/22 01:14:15;;;;;;;13.10;6.03;;;;;;;14.94;100.00;101094.41;5073524;28;20032;-78
2022/07/22 01:16:40;;;;;;;11.75;5.65;;;;;;;15.01;100.00;101106.34;5060480;28;20089;-73
2022/07/22 01:19:06;;;;;;;9.73;5.82;;;;;;;15.00;100.00;101094.06;5075772;28;20107;-73
2022/07/22 01:21:31;;;;;;;9.63;5.25;;;;;;;14.93;100.00;101081.28;5062048;28;20368;-74
2022/07/22 01:23:57;;;;;;;9.45;5.88;;;;;;;15.13;100.00;101110.97;5066659;28;20529;-75
2022/07/22 01:26:23;;;;;;;12.55;5.80;;;;;;;14.93;100.00;101079.50;5055625;28;20025;-75
2022/07/22 01:28:48;;;;;;;7.65;4.72;;;;;;;15.03;100.00;101107.13;5059410;28;20028;-74
2022/07/22 01:31:14;;;;;;;9.82;5.15;;;;;;;14.99;100.00;101102.94;5064557;28;20535;-75
2022/07/22 01:33:39;;;;;;;9.98;4.70;;;;;;;14.71;100.00;101063.97;5071070;28;20043;-74
2022/07/22 01:36:05;;;;;;;9.63;4.63;;;;;;;14.71;100.00;101065.75;5059864;28;20099;-74
2022/07/22 01:38:31;;;;;;;8.02;4.30;;;;;;;15.01;100.00;101114.28;5063415;28;20091;-75
2022/07/22 01:40:56;;;;;;;10.38;5.40;;;;;;;15.06;100.00;101117.53;5058577;28;20434;-75
2022/07/22 01:43:22;;;;;;;13.88;5.18;;;;;;;14.98;100.00;101106.53;5061820;28;20374;-75
2022/07/22 01:45:49;;;;;;;6.55;3.95;;;;;;;15.12;100.00;101113.69;5073047;28;20394;-75
2022/07/22 01:48:15;;;;;;;12.57;5.65;;;;;;;15.07;100.00;101106.00;5062858;28;20029;-75
2022/07/22 01:50:41;;;;;;;8.75;6.03;;;;;;;15.09;100.00;101104.13;5075408;28;20432;-75
2022/07/22 01:53:07;;;;;;;10.55;5.22;;;;;;;15.11;100.00;101112.81;5080054;28;20033;-74
2022/07/22 01:55:33;;;;;;;12.07;5.35;;;;;;;15.05;100.00;101102.59;5088476;28;20060;-75
2022/07/22 01:57:58;;;;;;;12.10;5.43;;;;;;;14.65;100.00;101039.66;5084352;28;20482;-74
2022/07/22 02:00:24;;;;;;;6.65;4.88;;;;;;;14.57;100.00;101036.56;5063616;28;20479;-75
2022/07/22 02:02:49;;;;;;;9.82;5.25;;;;;;;14.88;100.00;101100.06;5080025;28;20101;-75
2022/07/22 02:05:14;;;;;;;9.35;4.95;;;;;;;14.98;100.00;101110.97;5054218;28;20048;-75
2022/07/22 02:07:40;;;;;;;12.27;5.45;;;;;;;14.57;100.00;101048.00;5068133;28;20028;-75
2022/07/22 02:10:06;;;;;;;8.27;5.90;;;;;;;14.96;100.00;101113.72;5052394;28;20032;-75
2022/07/22 02:12:31;;;;;;;7.43;5.00;;;;;;;14.96;100.00;101107.56;5066401;28;20529;-75
2022/07/22 02:14:56;;;;;;;9.40;5.50;;;;;;;14.88;100.00;101089.47;5072906;28;20024;-76
2022/07/22 02:17:22;;;;;;;13.30;5.90;;;;;;;14.87;100.00;101086.94;5078581;28;20029;-76
2022/07/22 02:19:47;;;;;;;7.07;5.38;;;;;;;14.71;100.00;101066.59;5078870;28;20032;-75
2022/07/22 02:22:13;;;;;;;14.13;5.80;;;;;;;14.59;100.00;101038.22;5069222;28;20036;-75
2022/07/22 02:24:38;;;;;;;9.10;5.43;;;;;;;14.90;100.00;101073.50;5072519;28;20021;-76
2022/07/22 02:27:04;;;;;;;13.25;7.30;;;;;;;14.95;100.00;101085.53;5073937;28;20024;-76
2022/07/22 02:29:31;;;;;;;9.93;5.40;;;;;;;14.85;100.00;101068.47;5082276;28;20028;-75
2022/07/22 02:31:56;;;;;;;6.75;4.93;;;;;;;14.90;100.00;101077.03;5070923;28;20055;-75
2022/07/22 02:34:21;;;;;;;14.75;7.78;;;;;;;14.92;100.00;101090.16;5069549;28;20538;-74
2022/07/22 02:36:47;;;;;;;13.38;5.90;;;;;;;14.83;100.00;101080.94;5078388;28;20032;-74
2022/07/22 02:39:12;;;;;;;13.27;7.03;;;;;;;14.83;100.00;101080.94;5064446;28;20052;-75
2022/07/22 02:41:37;;;;;;;14.70;6.38;;;;;;;14.84;100.00;101078.19;5078255;28;20033;-76
2022/07/22 02:44:03;;;;;;;12.95;5.65;;;;;;;14.86;100.00;101086.06;5104736;28;20036;-74
2022/07/22 02:46:29;;;;;;;10.80;6.18;;;;;;;14.74;100.00;101060.28;5062887;28;20487;-74
2022/07/22 02:48:54;;;;;;;14.82;6.18;;;;;;;14.82;100.00;101079.25;5055498;28;20121;-76
2022/07/22 02:51:20;;;;;;;7.75;5.57;;;;;;;14.88;100.00;101065.66;5080268;28;20052;-74
2022/07/22 02:53:45;;;;;;;10.68;5.95;;;;;;;14.81;100.00;101056.34;5068467;28;20083;-76
2022/07/22 02:56:11;;;;;;;10.68;6.28;;;;;;;14.69;100.00;101031.47;5072981;28;20024;-75
2022/07/22 02:58:36;;;;;;;8.70;5.45;;;;;;;14.89;100.00;101063.88;5081720;28;20036;-75
2022/07/22 03:01:02;;;;;;;11.02;5.80;;;;;;;14.84;100.00;101067.63;5067387;28;20035;-75
2022/07/22 03:03:27;;;;;;;6.45;5.25;;;;;;;14.86;100.00;101064.91;5078418;28;20058;-76
2022/07/22 03:05:52;;;;;;;13.48;6.18;;;;;;;14.83;100.00;101065.94;5078824;28;20025;-76
2022/07/22 03:08:18;;;;;;;10.90;6.18;;;;;;;14.79;100.00;101052.97;5066374;28;20106;-76
2022/07/22 03:10:43;;;;;;;12.70;6.43;;;;;;;14.47;100.00;100988.66;5087454;28;20032;-76
2022/07/22 03:13:08;;;;;;;13.85;5.90;;;;;;;14.89;100.00;101059.44;5056818;28;20056;-75
2022/07/22 03:15:34;;;;;;;15.02;5.88;;;;;;;14.86;100.00;101054.31;5068784;28;20043;-74
2022/07/22 03:18:00;;;;;;;15.02;6.55;;;;;;;14.86;100.00;101056.09;5059274;28;20123;-74
2022/07/22 03:20:25;;;;;;;10.82;5.75;;;;;;;14.82;100.00;101053.63;5085859;28;20033;-73
2022/07/22 03:22:51;;;;;;;10.07;6.03;;;;;;;14.83;100.00;101057.13;5073235;28;20101;-73
2022/07/22 03:25:16;;;;;;;12.52;5.53;;;;;;;14.80;100.00;101057.31;5063985;28;20052;-73
2022/07/22 03:27:42;;;;;;;6.20;4.50;;;;;;;14.70;100.00;101037.63;5059430;28;20471;-73
2022/07/22 03:30:07;;;;;;;10.68;5.32;;;;;;;14.77;100.00;101044.22;5070739;28;20043;-74
2022/07/22 03:32:33;;;;;;;5.43;4.57;;;;;;;14.89;100.00;101066.50;5081537;28;20052;-74
2022/07/22 03:34:58;;;;;;;8.05;5.28;;;;;;;14.87;100.00;101057.81;5062954;28;20623;-74
2022/07/22 03:37:23;;;;;;;8.35;5.70;;;;;;;14.83;100.00;101060.63;5084942;28;20068;-74
2022/07/22 03:39:49;;;;;;;6.93;4.60;;;;;;;14.73;100.00;101048.88;5054405;28;20051;-75
2022/07/22 03:42:14;;;;;;;11.85;5.10;;;;;;;14.76;100.00;101050.50;5081549;28;20020;-75
2022/07/22 03:44:39;;;;;;;9.77;5.15;;;;;;;14.63;100.00;101033.59;5083461;28;20478;-74
2022/07/22 03:47:05;;;;;;;7.00;4.72;;;;;;;14.85;100.00;101073.75;5051910;28;20048;-75
2022/07/22 03:49:31;;;;;;;7.47;4.55;;;;;;;14.88;100.00;101068.28;5063381;28;20099;-75
2022/07/22 03:51:57;;;;;;;8.18;4.95;;;;;;;14.86;100.00;101070.19;5065661;28;20033;-74
2022/07/22 03:54:23;;;;;;;11.85;4.60;;;;;;;14.79;100.00;101069.69;5070149;28;20039;-75
2022/07/22 03:56:48;;;;;;;11.82;5.35;;;;;;;14.69;100.00;101067.66;5065166;28;20115;-74
2022/07/22 03:59:15;;;;;;;9.90;5.30;;;;;;;14.54;100.00;101042.03;5068052;28;20359;-74
2022/07/22 04:01:40;;;;;;;10.65;5.88;;;;;;;14.70;100.00;101064.91;5055092;28;20083;-74
2022/07/22 04:04:05;;;;;;;7.50;5.05;;;;;;;14.65;100.00;101060.81;5056756;28;20472;-75
2022/07/22 04:06:31;;;;;;;10.95;5.75;;;;;;;14.61;100.00;101059.28;5063088;28;20487;-75
2022/07/22 04:08:57;;;;;;;7.03;5.32;;;;;;;14.59;100.00;101056.72;5066966;28;20024;-75
2022/07/22 04:11:22;;;;;;;6.22;4.32;;;;;;;14.72;100.00;101078.06;5065577;28;20020;-75
2022/07/22 04:13:47;;;;;;;9.18;5.00;;;;;;;14.74;100.00;101076.16;5090543;28;20039;-75
2022/07/22 04:16:13;;;;;;;12.63;5.60;;;;;;;14.64;100.00;101064.38;5074472;28;20026;-75
2022/07/22 04:18:38;;;;;;;10.48;5.55;;;;;;;14.58;100.00;101055.03;5079738;28;20024;-75
2022/07/22 04:21:04;;;;;;;19.65;6.60;;;;;;;14.61;100.00;101053.97;5057656;28;20117;-76
2022/07/22 04:23:29;;;;;;;12.48;5.60;;;;;;;14.70;100.00;101074.66;5058616;28;20032;-75
2022/07/22 04:25:55;;;;;;;9.27;6.32;;;;;;;14.77;100.00;101078.63;5058449;28;20392;-75
2022/07/22 04:28:20;;;;;;;8.10;6.55;;;;;;;14.73;100.00;101070.03;5070959;28;20131;-74
2022/07/22 04:30:46;;;;;;;12.18;6.03;;;;;;;14.80;100.00;101081.13;5095510;28;20035;-74
2022/07/22 04:33:12;;;;;;;9.95;6.30;;;;;;;14.69;100.00;101057.91;5065066;28;20063;-73
2022/07/22 04:35:37;;;;;;;12.90;6.65;;;;;;;14.72;100.00;101064.81;5050697;28;20032;-74
2022/07/22 04:38:02;;;;;;;10.55;6.00;;;;;;;14.65;100.00;101050.22;5065479;28;20017;-73
2022/07/22 04:40:28;;;;;;;9.70;6.35;;;;;;;14.63;100.00;101042.38;5052693;28;20045;-74
2022/07/22 04:42:54;;;;;;;11.13;6.57;;;;;;;14.77;100.00;101057.47;5054511;28;20017;-74
2022/07/22 04:45:19;;;;;;;9.23;7.30;;;;;;;14.75;100.00;101051.41;5061988;28;20033;-74
2022/07/22 04:47:44;;;;;;;13.48;8.13;;;;;;;14.77;100.00;101049.53;5061398;28;20440;-74
2022/07/22 04:50:10;;;;;;;10.30;6.57;;;;;;;14.49;100.00;101001.78;5056181;28;20072;-74
2022/07/22 04:52:35;;;;;;;12.05;7.90;;;;;;;14.84;100.00;101051.75;5068757;28;20032;-74
2022/07/22 04:55:01;;;;;;;12.35;7.38;;;;;;;14.92;100.00;101050.44;5052859;28;20079;-74
2022/07/22 04:57:26;;;;;;;15.98;6.88;;;;;;;14.91;100.00;101040.78;5052460;28;20104;-74
2022/07/22 04:59:52;;;;;;;10.18;6.57;;;;;;;15.02;100.00;101049.84;5071748;28;20035;-74
2022/07/22 05:02:18;;;;;;;11.45;6.45;;;;;;;14.94;100.00;101028.25;5059545;28;20119;-73
2022/07/22 05:04:43;;;;;;;11.13;6.80;;;;;;;15.07;100.00;101050.41;5080773;28;20130;-73
2022/07/22 05:07:09;;;;;;;10.15;6.57;;;;;;;15.03;100.00;101035.66;5077211;28;20116;-73
2022/07/22 05:09:34;;;;;;;10.77;7.45;;;;;;;15.12;100.00;101044.84;5076959;28;20117;-73
2022/07/22 05:12:00;;;;;;;9.38;5.80;;;;;;;15.14;100.00;101046.47;5065848;28;20471;-74
2022/07/22 05:14:25;;;;;;;11.93;6.55;;;;;;;15.23;100.00;101040.66;5060210;28;20130;-74
2022/07/22 05:16:50;;;;;;;22.98;7.95;;;;;;;15.26;100.00;101036.94;5063344;28;20033;-74
2022/07/22 05:19:16;;;;;;;11.52;6.18;;;;;;;15.23;100.00;101024.75;5063777;28;20037;-73
2022/07/22 05:21:41;;;;;;;10.73;6.22;;;;;;;15.25;100.00;101022.00;5069070;28;20021;-74
2022/07/22 05:24:07;;;;;;;8.55;6.13;;;;;;;15.29;100.00;101021.75;5070220;28;20028;-73
2022/07/22 05:26:33;;;;;;;8.68;5.15;;;;;;;15.03;100.00;100981.88;5055323;28;20043;-74
2022/07/22 05:28:59;;;;;;;11.93;5.40;;;;;;;15.15;100.00;101028.78;5069971;28;20020;-74
2022/07/22 05:31:24;;;;;;;6.63;4.47;;;;;;;15.13;100.00;101042.13;5077811;28;20111;-74
2022/07/22 05:33:50;;;;;;;10.02;4.68;;;;;;;15.11;100.00;101033.41;5069224;28;20039;-74
2022/07/22 05:36:15;;;;;;;12.15;5.55;;;;;;;15.18;100.00;101050.63;5063993;28;20083;-74
2022/07/22 05:38:41;;;;;;;5.53;3.53;;;;;;;15.09;100.00;101034.44;5049069;28;20467;-74
2022/07/22 05:41:06;;;;;;;12.80;4.50;;;;;;;15.21;100.00;101042.50;5069924;28;20048;-73
2022/07/22 05:43:31;;;;;;;9.13;3.78;;;;;;;14.85;100.00;100991.75;5071869;28;20112;-73
2022/07/22 05:45:57;;;;;;;6.45;4.05;;;;;;;15.25;100.00;101051.97;5068245;28;20476;-74
2022/07/22 05:48:22;;;;;;;6.68;3.22;;;;;;;15.41;100.00;101056.38;5074362;28;20395;-73
2022/07/22 05:50:48;;;;;;;5.20;3.10;;;;;;;15.48;100.00;101052.44;5061044;28;20033;-73
2022/07/22 05:53:13;;;;;;;9.43;3.80;;;;;;;15.57;100.00;101065.16;5073301;28;20081;-73
2022/07/22 05:55:39;;;;;;;7.10;3.08;;;;;;;15.52;100.00;101038.06;5062928;28;20093;-73
2022/07/22 05:58:04;;;;;;;5.07;2.88;;;;;;;15.71;100.00;101071.34;5081572;28;20024;-74
2022/07/22 06:00:29;;;;;;;10.40;3.40;;;;;;;15.75;100.00;101064.00;5058247;28;20145;-73
2022/07/22 06:02:55;;;;;;;6.75;3.55;;;;;;;15.72;100.00;101056.25;5110697;27;20032;-73
2022/07/22 06:05:21;;;;;;;4.85;2.92;;;;;;;15.81;100.00;101068.97;5110423;27;20062;-73
2022/07/22 06:07:46;;;;;;;4.63;2.65;;;;;;;15.80;100.00;101046.91;5075361;28;20028;-73
2022/07/22 06:10:12;;;;;;;7.38;2.70;;;;;;;15.86;100.00;101056.28;5088613;28;20103;-73
2022/07/22 06:12:37;;;;;;;4.28;2.65;;;;;;;16.00;100.00;101068.69;5074625;28;20321;-73
2022/07/22 06:15:03;;;;;;;8.13;2.95;;;;;;;15.95;100.00;101047.78;5074169;28;20093;-73
2022/07/22 06:17:28;;;;;;;5.32;2.60;;;;;;;16.10;100.00;101062.72;5074284;28;20042;-73
2022/07/22 06:19:54;;;;;;;6.28;2.88;;;;;;;16.08;100.00;101051.38;5069569;28;20036;-73
2022/07/22 06:22:19;;;;;;;6.65;2.75;;;;;;;16.12;100.00;101044.91;5078773;28;20117;-73
2022/07/22 06:24:45;;;;;;;9.75;2.72;;;;;;;16.04;100.00;101025.97;5066006;28;20028;-73
2022/07/22 06:27:10;;;;;;;4.45;2.67;;;;;;;16.34;100.00;101071.78;5086509;28;20021;-73
2022/07/22 06:29:36;;;;;;;8.07;3.25;;;;;;;16.27;100.00;101054.56;5080012;28;20025;-73
2022/07/22 06:32:01;;;;;;;5.40;2.40;;;;;;;16.27;100.00;101043.94;5067899;28;20039;-73
2022/07/22 06:34:27;;;;;;;3.47;2.20;;;;;;;16.27;100.00;101038.63;5059629;28;20032;-73
2022/07/22 06:36:52;;;;;;;5.25;2.30;;;;;;;16.48;100.00;101070.06;5054338;28;20118;-73
2022/07/22 06:39:18;;;;;;;6.97;3.05;;;;;;;16.41;100.00;101047.50;5083260;28;20029;-73
2022/07/22 06:41:43;;;;;;;6.30;2.95;;;;;;;16.54;100.00;101051.09;5054227;28;20061;-73
2022/07/22 06:44:09;;;;;;;6.80;3.13;;;;;;;16.62;100.00;101064.75;5100065;28;20390;-73
2022/07/22 06:46:34;;;;;;;7.93;3.40;;;;;;;16.49;100.00;101046.09;5059272;28;20029;-72
2022/07/22 06:48:59;;;;;;;7.47;3.42;;;;;;;16.44;100.00;101044.66;5081458;28;20534;-73
2022/07/22 06:51:25;;;;;;;5.72;2.67;;;;;;;16.70;100.00;101070.41;5057336;28;20029;-73
2022/07/22 06:53:50;;;;;;;9.70;3.13;;;;;;;16.67;100.00;101067.94;5046640;28;20020;-73
2022/07/22 06:56:15;;;;;;;6.28;2.75;;;;;;;16.66;100.00;101058.31;5056269;28;20033;-73
2022/07/22 06:58:41;;;;;;;6.28;2.47;;;;;;;16.56;100.00;101041.28;5072770;28;20480;-73
2022/07/22 07:01:06;;;;;;;15.27;3.25;;;;;;;16.69;100.00;101056.31;5071953;28;20024;-73
2022/07/22 07:03:31;;;;;;;6.65;3.53;;;;;;;16.77;100.00;101053.13;5058538;28;20173;-73
2022/07/22 07:05:57;;;;;;;6.70;2.75;;;;;;;16.55;100.00;101018.31;5067985;28;20047;-72
2022/07/22 07:08:22;;;;;;;10.68;3.35;;;;;;;16.59;100.00;101043.72;5069450;28;20104;-72
2022/07/22 07:10:48;;;;;;;8.65;3.53;;;;;;;16.57;100.00;101054.41;5090161;28;20025;-72
2022/07/22 07:13:13;;;;;;;7.63;2.85;;;;;;;16.25;100.00;101019.34;5063012;28;20025;-72
2022/07/22 07:15:39;;;;;;;6.80;3.03;;;;;;;16.40;100.00;101035.19;5071382;28;20162;-71
2022/07/22 07:18:04;;;;;;;13.10;3.55;;;;;;;16.57;100.00;101035.84;5056075;28;20452;-71
2022/07/22 07:20:29;;;;;;;5.05;2.33;;;;;;;16.67;100.00;101046.72;5085972;28;20025;-72
2022/07/22 07:22:55;;;;;;;6.38;2.78;;;;;;;16.77;100.00;101031.88;5073914;28;20032;-73
2022/07/22 07:25:21;;;;;;;8.38;3.83;;;;;;;16.91;100.00;101021.22;5076556;28;20523;-72
2022/07/22 07:27:46;;;;;;;6.75;2.50;;;;;;;17.04;100.00;101013.28;5057337;28;20025;-73
2022/07/22 07:30:12;;;;;;;5.28;2.38;;;;;;;17.34;100.00;101028.00;5072274;28;20032;-73
2022/07/22 07:32:38;;;;;;;9.77;3.47;;;;;;;17.54;100.00;101034.59;5091187;28;20033;-72
2022/07/22 07:35:05;;;;;;;6.47;3.00;;;;;;;17.57;100.00;101015.00;5059378;28;20025;-72
2022/07/22 07:37:30;;;;;;;5.45;2.90;;;;;;;17.82;100.00;101020.28;5058388;28;20036;-72
2022/07/22 07:39:57;;;;;;;7.70;3.70;;;;;;;17.93;100.00;101025.69;5055569;28;20028;-72
2022/07/22 07:42:23;;;;;;;7.38;3.72;;;;;;;17.88;100.00;101017.19;5059468;28;20102;-71
2022/07/22 07:44:48;;;;;;;7.78;4.07;;;;;;;17.91;100.00;101024.97;5052442;28;20080;-72
2022/07/22 07:47:17;;;;;;;11.63;3.80;;;;;;;17.82;100.00;101006.97;5085730;28;20039;-72
2022/07/22 07:49:44;;;;;;;7.75;4.10;;;;;;;17.76;100.00;100986.16;5062734;28;20040;-72
2022/07/22 07:52:09;;;;;;;7.40;3.60;;;;;;;18.13;100.00;101022.47;5060705;28;20055;-72
2022/07/22 07:54:35;;;;;;;7.28;3.65;;;;;;;18.43;100.00;101047.81;5064230;28;20051;-72
2022/07/22 07:57:01;;;;;;;7.15;3.80;;;;;;;18.34;100.00;101022.75;5077974;28;20024;-74
2022/07/22 07:59:26;;;;;;;7.05;3.58;;;;;;;18.48;100.00;101043.03;5063336;28;20032;-72
2022/07/22 08:01:52;;;;;;;9.00;3.65;;;;;;;18.53;100.00;101044.41;5065892;28;20493;-72
2022/07/22 08:04:17;;;;;;;6.20;2.95;;;;;;;18.54;100.00;101042.63;5063649;28;20037;-73
2022/07/22 08:06:42;;;;;;;10.93;4.13;;;;;;;18.66;100.00;101042.56;5071129;28;20029;-73
2022/07/22 08:09:08;;;;;;;5.10;3.33;;;;;;;18.75;100.00;101033.91;5071205;28;20032;-73
2022/07/22 08:11:33;;;;;;;7.85;4.20;;;;;;;18.92;100.00;101038.00;5065541;28;20024;-73
2022/07/22 08:13:58;;;;;;;6.05;3.58;;;;;;;18.95;100.00;101043.09;5048619;28;20024;-73
2022/07/22 08:16:24;;;;;;;7.43;4.15;;;;;;;18.93;100.00;101025.50;5065958;28;20414;-69
2022/07/22 08:18:49;;;;;;;6.68;3.60;;;;;;;18.96;100.00;101028.78;5053725;28;20060;-70
2022/07/22 08:21:14;;;;;;;10.00;3.10;;;;;;;18.94;100.00;101013.88;5064328;28;20467;-72
2022/07/22 08:23:40;;;;;;;6.78;3.35;;;;;;;19.07;100.00;101042.16;5071252;28;20024;-72
2022/07/22 08:26:05;;;;;;;6.50;3.45;;;;;;;19.06;100.00;101037.78;5071041;28;20028;-71
2022/07/22 08:28:31;;;;;;;5.97;3.13;;;;;;;19.11;100.00;101037.44;5071561;28;20119;-71
2022/07/22 08:30:56;;;;;;;5.97;3.03;;;;;;;18.99;100.00;101017.06;5068452;28;20452;-71
2022/07/22 08:33:22;;;;;;;5.30;2.70;;;;;;;19.18;100.00;101034.22;5060958;28;20028;-71
2022/07/22 08:35:47;;;;;;;8.52;4.18;;;;;;;19.04;100.00;101010.41;5076370;28;20030;-70
2022/07/22 08:38:12;;;;;;;6.15;3.38;;;;;;;19.12;100.00;101029.34;5064383;28;20025;-71
2022/07/22 08:40:38;;;;;;;6.25;3.25;;;;;;;18.99;100.00;100993.94;5054288;28;20116;-75
2022/07/22 08:43:03;;;;;;;15.77;4.10;;;;;;;19.13;100.00;101012.38;5058070;28;20494;-71
2022/07/22 08:45:30;;;;;;;6.35;3.47;;;;;;;19.22;100.00;101018.84;5067369;28;20399;-70
2022/07/22 08:47:55;;;;;;;5.45;3.20;;;;;;;19.33;100.00;101011.69;5061910;28;20139;-70
2022/07/22 08:50:21;;;;;;;6.97;3.60;;;;;;;19.41;100.00;101008.47;5058416;28;21640;-69
2022/07/22 08:52:46;;;;;;;8.18;3.03;;;;;;;19.51;100.00;101013.94;5071268;28;20503;-69
2022/07/22 08:55:12;;;;;;;5.68;3.33;;;;;;;19.46;100.00;101016.13;5058449;28;20107;-69
2022/07/22 08:57:37;;;;;;;7.72;3.60;;;;;;;19.44;100.00;101021.56;5062983;28;20048;-70
2022/07/22 09:00:09;;;;;;;17.85;11.82;;;;;;;19.36;100.00;101023.97;5079209;28;20044;-71
2022/07/22 09:02:40;;;;;;;6.82;3.85;;;;;;;19.45;100.00;101030.44;5059535;28;20107;-70
2022/07/22 09:05:07;;;;;;;6.20;3.88;;;;;;;19.42;100.00;101009.34;5051215;28;20102;-69
2022/07/22 09:07:37;;;;;;;6.22;4.30;;;;;;;19.47;100.00;101020.50;5051604;28;20031;-69
2022/07/22 09:10:08;;;;;;;8.93;3.85;;;;;;;19.50;100.00;101013.09;5067704;28;20032;-69
2022/07/22 09:12:34;;;;;;;8.00;4.38;;;;;;;19.56;100.00;101011.78;5054968;28;20108;-70
2022/07/22 09:15:02;;;;;;;9.60;5.30;;;;;;;19.59;100.00;101016.88;5050757;28;20031;-71
2022/07/22 09:17:35;;;;;;;9.00;4.55;;;;;;;19.58;100.00;101018.69;5056315;28;20075;-71
2022/07/22 09:20:03;;;;;;;11.63;5.50;;;;;;;19.50;100.00;101001.59;5056590;28;20033;-72
2022/07/22 09:22:43;;;;;;;6.72;3.45;;;;;;;19.58;100.00;101020.50;5056933;28;20046;-72
2022/07/22 09:25:34;;;;;;;8.35;5.22;;;;;;;19.54;100.00;101019.03;5057154;28;20468;-70
2022/07/22 09:28:05;;;;;;;9.75;5.10;;;;;;;19.48;100.00;101020.38;5055023;28;20424;-70
2022/07/22 09:30:31;;;;;;;9.45;5.13;;;;;;;19.47;100.00;101012.50;5061125;28;20056;-70
2022/07/22 09:32:57;;;;;;;11.32;6.13;;;;;;;19.48;100.00;101008.84;5053913;28;20029;-69
2022/07/22 09:35:22;;;;;;;10.60;6.47;;;;;;;19.45;100.00;101011.75;5068790;28;20028;-69
2022/07/22 09:37:50;;;;;;;11.80;4.97;;;;;;;19.36;100.00;101014.13;5074173;28;20020;-71
2022/07/22 09:40:23;;;;;;;9.68;5.25;;;;;;;19.45;100.00;101014.44;5078628;28;20024;-71
2022/07/22 09:42:55;;;;;;;8.48;5.25;;;;;;;19.50;100.00;101012.28;5074109;28;20056;-70
2022/07/22 09:45:22;;;;;;;10.98;5.55;;;;;;;19.31;100.00;100968.34;5078578;28;20032;-71
2022/07/22 09:47:49;;;;;;;14.02;6.00;;;;;;;19.61;100.00;101010.47;5077660;28;20382;-71
2022/07/22 09:50:16;;;;;;;11.23;6.00;;;;;;;19.55;100.00;100970.94;5071296;28;20103;-71
2022/07/22 09:52:42;;;;;;;9.80;5.90;;;;;;;19.84;100.00;100997.97;5070867;28;20028;-71
2022/07/22 09:55:08;;;;;;;11.15;6.65;;;;;;;19.82;100.00;100992.78;5062853;28;20475;-74
2022/07/22 09:57:34;;;;;;;9.27;6.10;;;;;;;19.85;100.00;100978.34;5087591;28;20140;-70
2022/07/22 09:59:59;;;;;;;9.23;5.82;;;;;;;19.96;100.00;100975.69;5073577;28;20487;-71
2022/07/22 10:02:27;;;;;;;8.98;5.18;;;;;;;20.05;100.00;100988.28;5068866;28;20032;-70
2022/07/22 10:04:53;;;;;;;8.00;6.07;;;;;;;20.00;100.00;100979.81;5103010;28;20468;-71
2022/07/22 10:07:19;;;;;;;10.55;6.90;;;;;;;20.03;100.00;100990.22;5075789;28;20156;-70
2022/07/22 10:09:46;;;;;;;10.77;4.82;;;;;;;19.89;100.00;100987.81;5089288;28;20028;-71
2022/07/22 10:12:12;;;;;;;9.98;5.82;;;;;;;19.99;100.00;100993.25;5078934;28;20031;-70
2022/07/22 10:14:37;;;;;;;9.35;5.03;;;;;;;19.93;100.00;100975.06;5071684;28;20103;-70
2022/07/22 10:17:03;;;;;;;14.38;6.32;;;;;;;19.93;100.00;100983.94;5092323;27;20036;-70
2022/07/22 10:19:28;;;;;;;10.45;6.22;;;;;;;20.02;100.00;100993.84;5059035;28;20463;-70
2022/07/22 10:21:54;;;;;;;9.68;5.40;;;;;;;20.10;100.00;101004.78;5059032;28;20111;-70
2022/07/22 10:24:23;;;;;;;10.45;6.50;;;;;;;20.14;100.00;100994.69;5058174;28;20041;-70
2022/07/22 10:26:53;;;;;;;9.30;5.75;;;;;;;20.28;100.00;101002.44;5057502;28;20032;-71
2022/07/22 10:29:32;;;;;;;10.43;6.55;;;;;;;20.33;100.00;101001.13;5065453;28;20028;-72
2022/07/22 10:32:16;;;;;;;9.50;6.10;;;;;;;20.41;100.00;100994.31;5058553;28;20020;-69
2022/07/22 10:34:42;;;;;;;7.68;4.78;;;;;;;20.48;100.00;100992.84;5056388;28;20040;-71
2022/07/22 10:37:33;;;;;;;9.88;6.47;;;;;;;20.68;100.00;100987.56;5054806;28;20052;-72
2022/07/22 10:40:12;;;;;;;9.63;6.28;;;;;;;20.92;100.00;100979.31;5047389;28;20041;-71
2022/07/22 10:43:06;;;;;;;8.10;5.47;;;;;;;20.95;100.00;100978.22;5055364;28;20025;-70
2022/07/22 10:45:39;;;;;;;7.78;5.40;;;;;;;21.09;100.00;100961.88;5045682;28;20039;-72
2022/07/22 10:48:09;;;;;;;8.65;5.03;;;;;;;21.51;100.00;100974.25;5049152;28;20036;-70
2022/07/22 10:50:37;;;;;;;6.85;5.20;;;;;;;21.83;100.00;100966.91;5048087;28;20837;-71
2022/07/22 10:53:13;;;;;;;9.98;6.20;;;;;;;21.86;100.00;100941.75;5058887;28;20057;-70
2022/07/22 10:55:59;;;;;;;13.32;6.15;;;;;;;21.68;100.00;100978.13;5057461;28;20059;-70
2022/07/22 10:58:33;;;;;;;8.18;4.78;;;;;;;21.59;100.00;100968.25;5056201;28;20020;-71
2022/07/22 11:01:01;;;;;;;7.00;4.20;;;;;;;21.62;100.00;100962.63;5055220;28;20043;-70
2022/07/22 11:03:31;;;;;;;9.45;5.38;;;;;;;21.75;100.00;100957.88;5113982;27;20056;-70
2022/07/22 11:06:30;;;;;;;10.02;5.55;;;;;;;21.87;100.00;100954.13;5082671;28;20084;-70
2022/07/22 11:09:01;;;;;;;8.73;5.03;;;;;;;22.04;100.00;100945.47;5069291;28;20059;-70
2022/07/22 11:11:43;;;;;;;8.55;5.35;;;;;;;22.13;100.00;100966.09;5072222;28;20025;-70